createdAt,value
2022-12-14T00:01:30.252Z,4.40
2022-12-14T00:07:02.509Z,3.70
2022-12-14T00:09:30.994Z,3.67
2022-12-14T00:11:59.435Z,3.22
2022-12-14T00:14:27.893Z,2.78
2022-12-14T00:16:56.555Z,2.10
2022-12-14T00:19:26.302Z,2.72
2022-12-14T00:21:54.920Z,2.28
2022-12-14T00:24:24.917Z,2.53
2022-12-14T00:26:53.425Z,2.50
2022-12-14T00:29:21.870Z,3.72
2022-12-14T00:31:51.563Z,3.35
2022-12-14T00:34:20.067Z,4.57
2022-12-14T00:36:48.649Z,3.47
2022-12-14T00:39:17.419Z,3.90
2022-12-14T00:41:47.435Z,4.20
2022-12-14T00:44:16.076Z,2.45
2022-12-14T00:46:44.680Z,4.32
2022-12-14T00:49:13.638Z,1.95
2022-12-14T00:51:42.029Z,4.03
2022-12-14T00:54:10.569Z,3.33
2022-12-14T00:56:39.139Z,3.40
2022-12-14T00:59:09.065Z,3.00
2022-12-14T01:01:38.116Z,3.95
2022-12-14T01:04:19.845Z,2.53
2022-12-14T01:06:49.671Z,2.72
2022-12-14T01:09:19.346Z,2.10
2022-12-14T01:11:48.186Z,3.13
2022-12-14T01:14:20.848Z,2.47
2022-12-14T01:16:49.382Z,2.63
2022-12-14T01:19:18.032Z,3.13
2022-12-14T01:21:46.483Z,2.85
2022-12-14T01:24:15.245Z,3.05
2022-12-14T01:26:43.739Z,3.75
2022-12-14T01:29:13.230Z,3.80
2022-12-14T01:31:43.636Z,3.60
2022-12-14T01:34:17.491Z,3.45
2022-12-14T01:36:46.448Z,3.88
2022-12-14T01:39:17.176Z,5.95
2022-12-14T01:41:49.597Z,3.35
2022-12-14T01:44:58.912Z,5.68
2022-12-14T01:47:35.843Z,3.40
2022-12-14T01:50:11.301Z,4.00
2022-12-14T01:52:42.933Z,4.45
2022-12-14T01:55:16.055Z,4.70
2022-12-14T01:57:50.508Z,3.80
2022-12-14T02:00:19.478Z,4.88
2022-12-14T02:02:54.698Z,5.20
2022-12-14T02:05:24.930Z,4.60
2022-12-14T02:07:56.236Z,6.17
2022-12-14T02:10:27.587Z,4.28
2022-12-14T02:13:03.577Z,6.50
2022-12-14T02:15:33.271Z,5.25
2022-12-14T02:18:04.997Z,5.13
2022-12-14T02:20:41.500Z,3.55
2022-12-14T02:23:51.128Z,3.80
2022-12-14T02:27:07.330Z,4.75
2022-12-14T02:29:53.585Z,2.78
2022-12-14T02:32:42.604Z,4.15
2022-12-14T02:35:22.930Z,3.70
2022-12-14T02:38:02.031Z,5.20
2022-12-14T02:40:39.673Z,7.28
2022-12-14T02:43:17.770Z,3.50
2022-12-14T02:45:56.952Z,4.93
2022-12-14T02:48:28.362Z,3.72
2022-12-14T02:51:03.540Z,3.55
2022-12-14T02:53:40.000Z,3.58
2022-12-14T02:56:11.623Z,4.85
2022-12-14T02:58:43.219Z,5.88
2022-12-14T03:01:15.798Z,3.38
2022-12-14T03:03:44.721Z,2.75
2022-12-14T03:06:26.598Z,6.82
2022-12-14T03:08:58.678Z,4.43
2022-12-14T03:11:35.594Z,2.97
2022-12-14T03:14:10.071Z,3.40
2022-12-14T03:16:44.912Z,3.50
2022-12-14T03:19:20.391Z,4.60
2022-12-14T03:21:53.214Z,4.88
2022-12-14T03:24:25.514Z,4.00
2022-12-14T03:26:59.180Z,3.08
2022-12-14T03:29:31.098Z,3.08
2022-12-14T03:32:05.092Z,4.32
2022-12-14T03:34:37.316Z,4.88
2022-12-14T03:37:11.506Z,3.63
2022-12-14T03:39:42.464Z,5.50
2022-12-14T03:42:20.012Z,4.68
2022-12-14T03:44:53.711Z,7.40
2022-12-14T03:47:46.271Z,6.60
2022-12-14T03:50:21.114Z,6.65
2022-12-14T03:52:58.256Z,5.78
2022-12-14T03:55:31.360Z,4.03
2022-12-14T03:58:19.963Z,3.53
2022-12-14T04:01:01.496Z,4.90
2022-12-14T04:03:47.039Z,4.13
2022-12-14T04:06:26.018Z,3.60
2022-12-14T04:09:06.446Z,4.20
2022-12-14T04:11:55.618Z,4.07
2022-12-14T04:14:51.099Z,4.80
2022-12-14T04:17:45.258Z,4.40
2022-12-14T04:20:22.622Z,3.97
2022-12-14T04:22:57.265Z,3.47
2022-12-14T04:25:49.642Z,5.40
2022-12-14T04:28:39.449Z,5.72
2022-12-14T04:31:14.016Z,5.28
2022-12-14T04:33:50.481Z,8.63
2022-12-14T04:36:26.493Z,3.85
2022-12-14T04:39:01.653Z,5.70
2022-12-14T04:41:34.662Z,3.97
2022-12-14T04:44:08.067Z,4.70
2022-12-14T04:46:40.842Z,3.35
2022-12-14T04:49:20.124Z,2.88
2022-12-14T04:52:04.994Z,4.20
2022-12-14T04:54:39.460Z,3.80
2022-12-14T04:57:18.796Z,4.70
2022-12-14T04:59:49.214Z,6.45
2022-12-14T05:02:29.425Z,4.10
2022-12-14T05:05:05.310Z,3.70
2022-12-14T05:07:48.856Z,4.90
2022-12-14T05:10:21.351Z,3.90
2022-12-14T05:12:58.878Z,3.70
2022-12-14T05:15:33.667Z,3.25
2022-12-14T05:18:04.998Z,4.55
2022-12-14T05:20:34.155Z,6.43
2022-12-14T05:23:04.358Z,4.05
2022-12-14T05:25:33.186Z,3.50
2022-12-14T05:28:01.938Z,8.23
2022-12-14T05:30:34.099Z,3.42
2022-12-14T05:33:05.824Z,4.03
2022-12-14T05:35:34.623Z,6.03
2022-12-14T05:38:07.340Z,4.10
2022-12-14T05:40:38.381Z,5.28
2022-12-14T05:43:07.457Z,3.45
2022-12-14T05:45:38.031Z,3.50
2022-12-14T05:48:09.183Z,5.10
2022-12-14T05:50:38.504Z,5.20
2022-12-14T05:53:09.184Z,7.40
2022-12-14T05:55:40.123Z,3.42
2022-12-14T05:58:08.976Z,4.55
2022-12-14T06:00:37.668Z,4.28
2022-12-14T06:03:06.694Z,3.63
2022-12-14T06:05:35.588Z,2.95
2022-12-14T06:08:04.464Z,3.10
2022-12-14T06:10:34.685Z,3.63
2022-12-14T06:13:03.506Z,4.22
2022-12-14T06:15:34.224Z,2.47
2022-12-14T06:18:03.110Z,3.33
2022-12-14T06:20:31.827Z,4.85
2022-12-14T06:23:03.747Z,3.65
2022-12-14T06:25:34.500Z,5.65
2022-12-14T06:28:03.458Z,3.35
2022-12-14T06:30:32.136Z,4.35
2022-12-14T06:33:01.129Z,5.90
2022-12-14T06:35:29.926Z,4.60
2022-12-14T06:37:58.950Z,4.55
2022-12-14T06:40:27.791Z,6.75
2022-12-14T06:43:01.263Z,8.82
2022-12-14T06:45:30.191Z,2.60
2022-12-14T06:47:59.812Z,4.20
2022-12-14T06:50:29.402Z,2.90
2022-12-14T06:53:07.102Z,4.68
2022-12-14T06:55:36.012Z,3.85
2022-12-14T06:58:06.421Z,2.80
2022-12-14T07:00:35.059Z,4.20
2022-12-14T07:03:04.002Z,2.63
2022-12-14T07:05:45.680Z,3.80
2022-12-14T07:08:17.679Z,2.22
2022-12-14T07:10:46.222Z,2.97
2022-12-14T07:13:16.521Z,3.95
2022-12-14T07:15:45.325Z,3.10
2022-12-14T07:18:14.105Z,2.88
2022-12-14T07:20:46.039Z,2.92
2022-12-14T07:23:17.780Z,3.80
2022-12-14T07:25:46.628Z,3.33
2022-12-14T07:28:19.694Z,2.42
2022-12-14T07:30:56.227Z,2.97
2022-12-14T07:33:26.099Z,2.67
2022-12-14T07:36:07.168Z,2.22
2022-12-14T07:38:36.639Z,3.38
2022-12-14T07:41:07.519Z,2.53
2022-12-14T07:43:38.159Z,3.20
2022-12-14T07:46:11.943Z,4.05
2022-12-14T07:48:41.282Z,2.30
2022-12-14T07:51:11.620Z,3.42
2022-12-14T07:53:40.944Z,3.88
2022-12-14T07:56:12.731Z,3.53
2022-12-14T07:58:43.504Z,4.55
2022-12-14T08:01:13.827Z,3.65
2022-12-14T08:03:47.124Z,2.90
2022-12-14T08:08:46.368Z,3.10
2022-12-14T08:11:16.240Z,6.43
2022-12-14T08:13:47.064Z,3.08
2022-12-14T08:16:17.844Z,3.67
2022-12-14T08:18:46.502Z,4.60
2022-12-14T08:21:16.070Z,5.20
2022-12-14T08:23:44.791Z,5.57
2022-12-14T08:26:13.643Z,3.22
2022-12-14T08:28:42.447Z,5.55
2022-12-14T08:31:14.963Z,3.92
2022-12-14T08:33:44.972Z,4.20
2022-12-14T08:36:15.718Z,3.03
2022-12-14T08:38:44.859Z,3.40
2022-12-14T08:41:15.306Z,4.50
2022-12-14T08:43:55.713Z,5.63
2022-12-14T08:46:26.690Z,2.83
2022-12-14T08:51:30.655Z,2.92
2022-12-14T08:53:59.668Z,3.67
2022-12-14T08:56:29.255Z,3.40
2022-12-14T08:58:58.883Z,2.83
2022-12-14T09:01:34.085Z,4.60
2022-12-14T09:04:05.446Z,3.45
2022-12-14T09:06:37.200Z,2.88
2022-12-14T09:09:13.328Z,3.83
2022-12-14T09:11:44.641Z,3.60
2022-12-14T09:14:13.482Z,3.80
2022-12-14T09:16:43.848Z,5.88
2022-12-14T09:19:12.731Z,3.92
2022-12-14T09:21:41.592Z,4.97
2022-12-14T09:24:11.182Z,3.85
2022-12-14T09:26:39.888Z,4.53
2022-12-14T09:29:08.863Z,3.17
2022-12-14T09:31:37.585Z,3.25
2022-12-14T09:34:08.213Z,4.72
2022-12-14T09:36:37.613Z,3.72
2022-12-14T09:39:06.298Z,4.00
2022-12-14T09:41:50.730Z,3.70
2022-12-14T09:44:32.890Z,3.00
2022-12-14T09:49:36.734Z,4.25
2022-12-14T09:52:08.636Z,3.30
2022-12-14T09:54:40.519Z,4.05
2022-12-14T09:57:14.215Z,4.85
2022-12-14T09:59:43.126Z,4.40
2022-12-14T10:02:31.767Z,3.38
2022-12-14T10:05:34.714Z,4.38
2022-12-14T10:08:14.774Z,4.07
2022-12-14T10:10:54.473Z,4.07
2022-12-14T10:13:33.981Z,4.07
2022-12-14T10:16:16.742Z,5.32
2022-12-14T10:19:03.236Z,3.03
2022-12-14T10:21:47.814Z,3.78
2022-12-14T10:24:22.455Z,3.72
2022-12-14T10:26:54.492Z,4.65
2022-12-14T10:29:34.715Z,6.53
2022-12-14T10:32:21.267Z,2.77
2022-12-14T10:34:50.960Z,4.65
2022-12-14T10:37:28.544Z,3.30
2022-12-14T10:40:30.774Z,4.25
2022-12-14T10:43:16.163Z,3.55
2022-12-14T10:45:53.181Z,2.50
2022-12-14T10:48:43.309Z,3.30
2022-12-14T10:51:17.442Z,2.90
2022-12-14T10:53:54.830Z,3.00
2022-12-14T10:56:27.443Z,3.53
2022-12-14T10:59:38.918Z,4.68
2022-12-14T11:02:17.869Z,3.08
2022-12-14T11:04:50.862Z,3.92
2022-12-14T11:07:21.604Z,4.15
2022-12-14T11:09:51.960Z,3.22
2022-12-14T11:12:25.074Z,4.78
2022-12-14T11:14:57.828Z,2.90
2022-12-14T11:17:40.808Z,3.42
2022-12-14T11:20:24.515Z,3.00
2022-12-14T11:22:56.115Z,2.65
2022-12-14T11:25:32.625Z,3.58
2022-12-14T11:28:04.803Z,3.38
2022-12-14T11:30:36.212Z,4.80
2022-12-14T11:33:05.432Z,2.70
2022-12-14T11:35:34.305Z,4.40
2022-12-14T11:38:03.028Z,2.65
2022-12-14T11:40:38.386Z,5.93
2022-12-14T11:43:07.170Z,4.45
2022-12-14T11:45:37.614Z,4.70
2022-12-14T11:48:22.511Z,4.25
2022-12-14T11:50:51.755Z,2.95
2022-12-14T11:53:22.178Z,1.85
2022-12-14T11:55:57.800Z,4.03
2022-12-14T11:58:29.623Z,2.83
2022-12-14T12:01:01.721Z,2.58
2022-12-14T12:03:35.969Z,4.25
2022-12-14T12:06:08.963Z,2.25
2022-12-14T12:08:40.265Z,3.83
2022-12-14T12:11:19.871Z,5.18
2022-12-14T12:13:52.787Z,2.17
2022-12-14T12:16:25.108Z,3.85
2022-12-14T12:18:57.857Z,2.53
2022-12-14T12:21:30.047Z,2.22
2022-12-14T12:24:04.352Z,3.30
2022-12-14T12:26:39.599Z,3.17
2022-12-14T12:29:15.176Z,2.67
2022-12-14T12:31:50.553Z,3.83
2022-12-14T12:34:23.640Z,3.13
2022-12-14T12:37:24.882Z,4.93
2022-12-14T12:39:49.762Z,6.82
2022-12-14T12:42:26.137Z,4.43
2022-12-14T12:45:02.066Z,2.35
2022-12-14T12:47:46.160Z,3.28
2022-12-14T12:50:22.888Z,3.45
2022-12-14T12:53:03.073Z,4.30
2022-12-14T12:55:35.478Z,5.10
2022-12-14T12:58:10.150Z,5.15
2022-12-14T13:00:42.002Z,4.32
2022-12-14T13:03:17.484Z,3.40
2022-12-14T13:05:48.853Z,4.65
2022-12-14T13:08:28.231Z,4.85
2022-12-14T13:11:25.089Z,5.38
2022-12-14T13:13:54.560Z,4.50
2022-12-14T13:16:28.668Z,4.95
2022-12-14T13:19:32.043Z,4.75
2022-12-14T13:21:54.591Z,4.63
2022-12-14T13:24:25.316Z,5.75
2022-12-14T13:27:19.277Z,5.80
2022-12-14T13:30:05.860Z,6.93
2022-12-14T13:32:54.711Z,4.50
2022-12-14T13:35:41.641Z,6.30
2022-12-14T13:38:32.896Z,5.95
2022-12-14T13:41:29.920Z,6.32
2022-12-14T13:44:18.898Z,6.10
2022-12-14T13:47:00.637Z,6.60
2022-12-14T13:49:30.278Z,6.05
2022-12-14T13:51:59.051Z,7.75
2022-12-14T13:54:30.507Z,6.53
2022-12-14T13:57:05.761Z,6.63
2022-12-14T13:59:42.305Z,7.43
2022-12-14T14:02:41.389Z,6.22
2022-12-14T14:05:46.390Z,7.72
2022-12-14T14:08:39.292Z,8.23
2022-12-14T14:11:46.917Z,6.00
2022-12-14T14:14:36.275Z,7.60
2022-12-14T14:17:12.608Z,6.72
2022-12-14T14:19:49.749Z,5.90
2022-12-14T14:22:23.942Z,6.97
2022-12-14T14:24:58.516Z,6.68
2022-12-14T14:27:30.998Z,6.78
2022-12-14T14:30:00.007Z,5.25
2022-12-14T14:32:43.860Z,5.50
2022-12-14T14:35:29.635Z,6.45
2022-12-14T14:38:01.232Z,6.40
2022-12-14T14:41:13.928Z,8.20
2022-12-14T14:43:29.312Z,6.15
2022-12-14T14:46:01.609Z,4.88
2022-12-14T14:48:35.299Z,5.85
2022-12-14T14:51:09.180Z,5.20
2022-12-14T14:53:39.970Z,4.97
2022-12-14T14:56:37.174Z,3.92
2022-12-14T14:59:54.976Z,4.40
2022-12-14T15:02:42.695Z,3.53
2022-12-14T15:08:19.600Z,3.38
2022-12-14T15:10:49.325Z,3.17
2022-12-14T15:13:22.470Z,3.78
2022-12-14T15:15:53.499Z,4.22
2022-12-14T15:21:02.273Z,2.92
2022-12-14T15:23:36.956Z,3.33
2022-12-14T15:26:16.473Z,5.85
2022-12-14T15:28:49.074Z,3.78
2022-12-14T15:31:17.828Z,4.05
2022-12-14T15:33:49.246Z,4.45
2022-12-14T15:36:20.728Z,8.18
2022-12-14T15:38:55.147Z,5.30
2022-12-14T15:41:25.825Z,4.70
2022-12-14T15:43:59.805Z,5.38
2022-12-14T15:46:30.605Z,3.50
2022-12-14T15:49:00.144Z,4.53
2022-12-14T15:51:32.910Z,6.18
2022-12-14T15:54:04.658Z,5.97
2022-12-14T15:56:35.810Z,4.72
2022-12-14T15:59:06.717Z,5.63
2022-12-14T16:01:40.659Z,5.70
2022-12-14T16:04:20.683Z,5.32
2022-12-14T16:06:52.912Z,4.63
2022-12-14T16:09:27.733Z,4.30
2022-12-14T16:11:58.485Z,6.43
2022-12-14T16:14:33.002Z,4.25
2022-12-14T16:17:02.561Z,5.53
2022-12-14T16:19:57.423Z,6.10
2022-12-14T16:22:26.309Z,6.05
2022-12-14T16:27:36.307Z,5.50
2022-12-14T16:30:17.126Z,7.78
2022-12-14T16:32:49.981Z,5.65
2022-12-14T16:35:25.210Z,6.13
2022-12-14T16:37:55.903Z,5.85
2022-12-14T16:40:33.545Z,5.78
2022-12-14T16:43:02.868Z,6.00
2022-12-14T16:46:08.085Z,6.05
2022-12-14T16:48:39.342Z,6.07
2022-12-14T16:54:30.551Z,5.18
2022-12-14T16:57:03.471Z,6.35
2022-12-14T16:59:41.272Z,8.10
2022-12-14T17:02:28.200Z,5.80
2022-12-14T17:04:58.668Z,5.60
2022-12-14T17:07:29.088Z,6.77
2022-12-14T17:09:57.909Z,6.10
2022-12-14T17:12:28.177Z,6.95
2022-12-14T17:14:56.684Z,7.50
2022-12-14T17:17:30.364Z,6.32
2022-12-14T17:19:58.928Z,6.78
2022-12-14T17:22:31.583Z,6.47
2022-12-14T17:25:02.724Z,7.25
2022-12-14T17:27:32.883Z,6.43
2022-12-14T17:30:01.325Z,6.47
2022-12-14T17:32:31.903Z,6.93
2022-12-14T17:35:00.854Z,6.57
2022-12-14T17:37:34.286Z,6.38
2022-12-14T17:40:05.498Z,9.30
2022-12-14T17:42:35.954Z,6.88
2022-12-14T17:45:05.054Z,6.80
2022-12-14T17:47:33.474Z,7.97
2022-12-14T17:50:01.992Z,6.50
2022-12-14T17:52:33.554Z,7.10
2022-12-14T17:55:02.349Z,5.57
2022-12-14T17:57:30.831Z,7.63
2022-12-14T18:00:14.593Z,7.13
2022-12-14T18:02:45.780Z,5.50
2022-12-14T18:05:20.114Z,7.18
2022-12-14T18:07:49.908Z,6.00
2022-12-14T18:10:19.762Z,7.88
2022-12-14T18:12:48.826Z,7.40
2022-12-14T18:15:22.236Z,6.00
2022-12-14T18:17:51.859Z,8.50
2022-12-14T18:20:21.121Z,8.68
2022-12-14T18:22:51.224Z,8.68
2022-12-14T18:25:33.843Z,9.32
2022-12-14T18:28:03.129Z,9.60
2022-12-14T18:30:40.518Z,8.23
2022-12-14T18:33:14.804Z,11.52
2022-12-14T18:35:43.987Z,8.13
2022-12-14T18:38:12.563Z,10.13
2022-12-14T18:40:43.226Z,7.80
2022-12-14T18:43:19.097Z,7.78
2022-12-14T18:45:49.541Z,8.98
2022-12-14T18:48:17.944Z,9.20
2022-12-14T18:50:46.639Z,8.00
2022-12-14T18:53:20.323Z,7.68
2022-12-14T18:55:49.562Z,8.32
2022-12-14T18:58:20.705Z,8.38
2022-12-14T19:03:20.811Z,10.98
2022-12-14T19:05:49.823Z,9.02
2022-12-14T19:08:19.626Z,8.00
2022-12-14T19:10:50.742Z,7.90
2022-12-14T19:15:58.365Z,7.15
2022-12-14T19:18:30.683Z,7.03
2022-12-14T19:21:00.584Z,8.65
2022-12-14T19:23:29.644Z,7.32
2022-12-14T19:26:02.181Z,8.10
2022-12-14T19:28:33.501Z,7.05
2022-12-14T19:31:04.407Z,7.82
2022-12-14T19:33:34.635Z,8.20
2022-12-14T19:36:07.541Z,8.40
2022-12-14T19:38:36.858Z,8.23
2022-12-14T19:41:07.950Z,8.70
2022-12-14T19:43:37.437Z,8.82
2022-12-14T19:46:09.648Z,9.25
2022-12-14T19:48:39.227Z,8.18
2022-12-14T19:51:10.930Z,7.63
2022-12-14T19:53:41.058Z,8.95
2022-12-14T19:56:09.825Z,7.63
2022-12-14T19:58:38.382Z,6.80
2022-12-14T20:01:11.734Z,9.32
2022-12-14T20:03:41.077Z,9.85
2022-12-14T20:06:10.699Z,7.22
2022-12-14T20:08:39.678Z,8.40
2022-12-14T20:11:09.498Z,7.95
2022-12-14T20:13:38.523Z,9.98
2022-12-14T20:16:07.683Z,10.85
2022-12-14T20:18:37.724Z,9.77
2022-12-14T20:21:08.190Z,10.65
2022-12-14T20:23:38.313Z,11.70
2022-12-14T20:26:09.228Z,11.43
2022-12-14T20:31:07.502Z,12.27
2022-12-14T20:33:38.760Z,10.18
2022-12-14T20:36:08.373Z,12.63
2022-12-14T20:38:36.927Z,12.30
2022-12-14T20:41:06.657Z,10.20
2022-12-14T20:43:36.551Z,12.27
2022-12-14T20:46:06.176Z,11.05
2022-12-14T20:48:34.734Z,10.00
2022-12-14T20:51:05.052Z,9.93
2022-12-14T20:53:34.053Z,10.38
2022-12-14T20:56:05.229Z,10.27
2022-12-14T20:58:33.778Z,10.52
2022-12-14T21:01:07.545Z,12.07
2022-12-14T21:03:36.569Z,11.50
2022-12-14T21:06:07.548Z,12.35
2022-12-14T21:08:57.134Z,11.23
2022-12-14T21:11:43.131Z,12.20
2022-12-14T21:14:11.975Z,10.60
2022-12-14T21:16:41.044Z,11.80
2022-12-14T21:19:11.509Z,11.38
2022-12-14T21:24:37.480Z,11.48
2022-12-14T21:27:10.208Z,10.88
2022-12-14T21:29:38.609Z,10.93
2022-12-14T21:32:07.591Z,11.40
2022-12-14T21:34:36.097Z,11.40
2022-12-14T21:37:06.180Z,9.93
2022-12-14T21:39:35.253Z,10.90
2022-12-14T21:42:15.666Z,11.05
2022-12-14T21:44:45.835Z,14.00
2022-12-14T21:47:16.873Z,10.00
2022-12-14T21:49:47.450Z,11.98
2022-12-14T21:52:19.622Z,10.07
2022-12-14T21:54:48.353Z,11.25
2022-12-14T21:57:35.778Z,14.20
2022-12-14T22:00:05.506Z,11.38
2022-12-14T22:02:41.965Z,11.55
2022-12-14T22:05:11.089Z,14.50
2022-12-14T22:07:41.013Z,14.02
2022-12-14T22:10:09.878Z,12.07
2022-12-14T22:12:38.232Z,11.43
2022-12-14T22:15:07.615Z,11.27
2022-12-14T22:17:36.133Z,14.10
2022-12-14T22:20:05.493Z,10.95
2022-12-14T22:22:34.611Z,12.55
2022-12-14T22:25:05.119Z,10.60
2022-12-14T22:27:33.600Z,12.38
2022-12-14T22:30:02.078Z,13.90
2022-12-14T22:32:30.735Z,12.82
2022-12-14T22:34:59.092Z,13.20
2022-12-14T22:37:27.579Z,15.82
2022-12-14T22:39:56.157Z,13.23
2022-12-14T22:42:26.098Z,15.07
2022-12-14T22:44:54.719Z,12.75
2022-12-14T22:47:23.298Z,13.48
2022-12-14T22:49:51.779Z,14.88
2022-12-14T22:52:24.705Z,14.10
2022-12-14T22:54:54.696Z,15.43
2022-12-14T22:57:23.860Z,13.00
2022-12-14T22:59:59.974Z,14.73
2022-12-14T23:02:30.744Z,12.98
2022-12-14T23:04:59.443Z,18.50
2022-12-14T23:07:27.957Z,14.55
2022-12-14T23:10:13.982Z,13.55
2022-12-14T23:12:59.759Z,16.98
2022-12-14T23:15:47.035Z,12.07
2022-12-14T23:18:33.439Z,14.40
2022-12-14T23:21:27.072Z,13.60
2022-12-14T23:24:12.845Z,14.73
2022-12-14T23:26:58.528Z,13.68
2022-12-14T23:29:44.724Z,15.85
2022-12-14T23:32:32.035Z,15.73
2022-12-14T23:35:18.028Z,15.07
2022-12-14T23:38:03.627Z,14.95
2022-12-14T23:40:49.423Z,15.98
2022-12-14T23:43:36.669Z,12.88
2022-12-14T23:46:25.105Z,15.07
2022-12-14T23:49:15.949Z,13.88
2022-12-14T23:54:48.334Z,14.93
2022-12-14T23:57:34.498Z,13.93
